createdAt,value
2022-12-04T00:02:23.955Z,97914.47
2022-12-04T00:04:54.970Z,97907.41
2022-12-04T00:07:24.451Z,97906.44
2022-12-04T00:09:53.693Z,97898.69
2022-12-04T00:12:22.603Z,97909.69
2022-12-04T00:15:24.020Z,97909.03
2022-12-04T00:17:41.538Z,97903.34
2022-12-04T00:20:14.974Z,97897.06
2022-12-04T00:22:44.955Z,97900.19
2022-12-04T00:25:14.460Z,97903.59
2022-12-04T00:27:43.374Z,97905.50
2022-12-04T00:30:15.264Z,97902.22
2022-12-04T00:32:44.659Z,97909.72
2022-12-04T00:35:15.021Z,97914.22
2022-12-04T00:37:43.381Z,97911.91
2022-12-04T00:40:14.934Z,97913.00
2022-12-04T00:42:45.331Z,97914.63
2022-12-04T00:45:15.303Z,97916.94
2022-12-04T00:47:44.803Z,97910.00
2022-12-04T00:50:15.898Z,97906.09
2022-12-04T00:52:45.398Z,97900.09
2022-12-04T00:55:15.405Z,97891.41
2022-12-04T00:57:44.396Z,97885.31
2022-12-04T01:00:14.384Z,97889.50
2022-12-04T01:02:43.488Z,97890.31
2022-12-04T01:05:14.521Z,97891.94
2022-12-04T01:07:43.039Z,97884.34
2022-12-04T01:10:14.707Z,97885.03
2022-12-04T01:12:43.353Z,97873.88
2022-12-04T01:15:13.696Z,97880.53
2022-12-04T01:17:42.413Z,97881.34
2022-12-04T01:20:17.574Z,97878.88
2022-12-04T01:22:47.635Z,97896.53
2022-12-04T01:25:17.166Z,97898.31
2022-12-04T01:27:46.523Z,97894.13
2022-12-04T01:30:16.094Z,97892.47
2022-12-04T01:32:44.953Z,97896.28
2022-12-04T01:35:15.401Z,97895.34
2022-12-04T01:37:44.878Z,97888.25
2022-12-04T01:40:18.286Z,97884.56
2022-12-04T01:42:47.612Z,97884.75
2022-12-04T01:45:43.691Z,97887.59
2022-12-04T01:48:22.773Z,97888.16
2022-12-04T01:51:04.356Z,97895.75
2022-12-04T01:53:36.385Z,97892.66
2022-12-04T01:56:06.181Z,97902.31
2022-12-04T01:58:42.231Z,97905.13
2022-12-04T02:01:12.055Z,97909.91
2022-12-04T02:03:41.734Z,97914.53
2022-12-04T02:06:12.563Z,97911.56
2022-12-04T02:08:41.651Z,97910.59
2022-12-04T02:11:27.825Z,97909.25
2022-12-04T02:14:12.480Z,97914.81
2022-12-04T02:16:52.563Z,97908.84
2022-12-04T02:20:19.399Z,97897.19
2022-12-04T02:23:40.882Z,97904.91
2022-12-04T02:26:41.141Z,97899.47
2022-12-04T02:29:24.571Z,97895.94
2022-12-04T02:32:02.413Z,97897.72
2022-12-04T02:34:41.793Z,97887.00
2022-12-04T02:37:17.168Z,97885.75
2022-12-04T02:39:56.621Z,97891.72
2022-12-04T02:42:36.307Z,97884.00
2022-12-04T02:45:13.155Z,97889.16
2022-12-04T02:47:47.066Z,97880.34
2022-12-04T02:50:22.260Z,97872.44
2022-12-04T02:52:57.091Z,97870.56
2022-12-04T02:55:34.742Z,97886.56
2022-12-04T02:58:17.810Z,97888.88
2022-12-04T03:00:51.290Z,97889.56
2022-12-04T03:03:26.105Z,97889.03
2022-12-04T03:06:03.844Z,97884.28
2022-12-04T03:08:41.925Z,97889.19
2022-12-04T03:11:11.515Z,97885.53
2022-12-04T03:13:48.816Z,97890.84
2022-12-04T03:16:26.581Z,97897.47
2022-12-04T03:19:03.172Z,97900.72
2022-12-04T03:21:39.192Z,97896.91
2022-12-04T03:24:19.199Z,97890.66
2022-12-04T03:26:55.388Z,97895.00
2022-12-04T03:29:34.548Z,97893.41
2022-12-04T03:32:15.372Z,97891.34
2022-12-04T03:34:56.685Z,97889.88
2022-12-04T03:37:35.342Z,97887.16
2022-12-04T03:40:17.206Z,97880.38
2022-12-04T03:42:54.191Z,97879.16
2022-12-04T03:45:29.619Z,97885.00
2022-12-04T03:48:10.980Z,97887.56
2022-12-04T03:50:48.093Z,97886.34
2022-12-04T03:53:26.755Z,97872.50
2022-12-04T03:56:07.390Z,97879.56
2022-12-04T03:58:43.205Z,97873.56
2022-12-04T04:01:16.639Z,97863.13
2022-12-04T04:03:52.242Z,97864.78
2022-12-04T04:06:30.351Z,97868.00
2022-12-04T04:09:06.746Z,97861.38
2022-12-04T04:11:42.938Z,97869.78
2022-12-04T04:14:37.790Z,97865.44
2022-12-04T04:17:37.963Z,97862.47
2022-12-04T04:20:35.086Z,97866.00
2022-12-04T04:23:26.152Z,97857.56
2022-12-04T04:25:58.406Z,97861.78
2022-12-04T04:28:34.971Z,97849.72
2022-12-04T04:31:19.196Z,97848.88
2022-12-04T04:34:00.740Z,97847.53
2022-12-04T04:36:42.789Z,97849.16
2022-12-04T04:39:24.147Z,97850.53
2022-12-04T04:42:04.493Z,97853.75
2022-12-04T04:44:46.867Z,97848.88
2022-12-04T04:47:27.096Z,97850.13
2022-12-04T04:50:02.276Z,97851.63
2022-12-04T04:52:34.959Z,97855.00
2022-12-04T04:55:05.949Z,97861.50
2022-12-04T04:57:37.778Z,97860.03
2022-12-04T05:00:12.716Z,97867.09
2022-12-04T05:02:42.036Z,97861.25
2022-12-04T05:05:13.586Z,97857.72
2022-12-04T05:07:46.080Z,97854.19
2022-12-04T05:10:15.567Z,97858.91
2022-12-04T05:12:46.194Z,97860.84
2022-12-04T05:15:16.814Z,97862.97
2022-12-04T05:17:47.056Z,97864.09
2022-12-04T05:20:17.711Z,97870.06
2022-12-04T05:22:50.532Z,97868.81
2022-12-04T05:25:21.387Z,97877.50
2022-12-04T05:27:51.429Z,97885.00
2022-12-04T05:30:21.937Z,97884.59
2022-12-04T05:32:53.546Z,97883.25
2022-12-04T05:35:23.642Z,97885.28
2022-12-04T05:37:56.456Z,97894.25
2022-12-04T05:40:26.555Z,97903.31
2022-12-04T05:42:56.627Z,97903.19
2022-12-04T05:45:26.438Z,97900.50
2022-12-04T05:47:57.902Z,97906.31
2022-12-04T05:50:27.695Z,97905.78
2022-12-04T05:52:59.533Z,97905.38
2022-12-04T05:55:28.507Z,97901.81
2022-12-04T05:57:57.670Z,97905.09
2022-12-04T06:00:28.059Z,97904.81
2022-12-04T06:02:57.334Z,97900.31
2022-12-04T06:05:28.619Z,97904.69
2022-12-04T06:07:59.685Z,97895.88
2022-12-04T06:10:31.320Z,97898.44
2022-12-04T06:13:00.686Z,97900.88
2022-12-04T06:15:30.273Z,97902.66
2022-12-04T06:18:01.996Z,97899.81
2022-12-04T06:20:32.481Z,97902.91
2022-12-04T06:23:04.364Z,97912.41
2022-12-04T06:25:33.708Z,97914.06
2022-12-04T06:28:03.294Z,97919.22
2022-12-04T06:30:32.301Z,97922.44
2022-12-04T06:33:01.851Z,97923.13
2022-12-04T06:35:31.656Z,97922.16
2022-12-04T06:38:02.315Z,97911.84
2022-12-04T06:40:31.884Z,97913.06
2022-12-04T06:43:01.299Z,97914.56
2022-12-04T06:45:31.982Z,97918.94
2022-12-04T06:48:02.593Z,97922.44
2022-12-04T06:50:32.076Z,97921.63
2022-12-04T06:53:06.576Z,97920.81
2022-12-04T06:55:39.534Z,97917.56
2022-12-04T06:58:09.047Z,97914.19
2022-12-04T07:00:38.972Z,97907.81
2022-12-04T07:03:08.501Z,97914.84
2022-12-04T07:05:38.086Z,97908.88
2022-12-04T07:08:09.324Z,97905.63
2022-12-04T07:10:41.411Z,97900.75
2022-12-04T07:13:12.113Z,97893.66
2022-12-04T07:15:43.360Z,97903.03
2022-12-04T07:18:13.789Z,97895.03
2022-12-04T07:20:44.601Z,97891.78
2022-12-04T07:23:14.815Z,97891.78
2022-12-04T07:25:45.731Z,97885.81
2022-12-04T07:28:15.198Z,97890.16
2022-12-04T07:30:44.674Z,97877.41
2022-12-04T07:33:14.707Z,97889.06
2022-12-04T07:35:43.356Z,97882.03
2022-12-04T07:38:12.985Z,97885.94
2022-12-04T07:40:43.199Z,97891.78
2022-12-04T07:43:12.107Z,97885.81
2022-12-04T07:45:41.197Z,97886.91
2022-12-04T07:48:10.638Z,97879.28
2022-12-04T07:50:40.328Z,97885.41
2022-12-04T07:53:09.368Z,97891.38
2022-12-04T07:55:38.556Z,97890.44
2022-12-04T07:58:08.986Z,97894.91
2022-12-04T08:00:39.846Z,97909.41
2022-12-04T08:03:10.105Z,97910.41
2022-12-04T08:05:40.704Z,97914.19
2022-12-04T08:08:10.199Z,97912.28
2022-12-04T08:10:41.761Z,97916.78
2022-12-04T08:13:13.348Z,97923.69
2022-12-04T08:15:43.230Z,97922.06
2022-12-04T08:18:12.913Z,97918.66
2022-12-04T08:20:41.308Z,97915.00
2022-12-04T08:23:11.450Z,97909.41
2022-12-04T08:25:42.343Z,97921.38
2022-12-04T08:28:13.398Z,97914.56
2022-12-04T08:30:43.308Z,97920.72
2022-12-04T08:33:12.790Z,97930.06
2022-12-04T08:35:42.806Z,97921.38
2022-12-04T08:38:11.769Z,97910.78
2022-12-04T08:40:40.614Z,97926.66
2022-12-04T08:43:11.929Z,97917.28
2022-12-04T08:45:40.910Z,97917.13
2022-12-04T08:48:09.423Z,97920.41
2022-12-04T08:50:39.058Z,97907.13
2022-12-04T08:53:09.073Z,97909.69
2022-12-04T08:55:39.047Z,97910.22
2022-12-04T08:58:09.672Z,97916.06
2022-12-04T09:00:40.712Z,97903.03
2022-12-04T09:03:10.846Z,97909.41
2022-12-04T09:05:39.736Z,97907.50
2022-12-04T09:08:08.874Z,97905.59
2022-12-04T09:10:38.044Z,97910.75
2022-12-04T09:13:08.103Z,97907.75
2022-12-04T09:15:41.501Z,97912.50
2022-12-04T09:18:11.478Z,97908.00
2022-12-04T09:20:40.553Z,97908.81
2022-12-04T09:23:10.516Z,97917.25
2022-12-04T09:25:40.120Z,97907.72
2022-12-04T09:28:09.120Z,97908.69
2022-12-04T09:30:39.117Z,97909.63
2022-12-04T09:33:10.071Z,97906.13
2022-12-04T09:35:41.471Z,97913.56
2022-12-04T09:38:10.976Z,97894.69
2022-12-04T09:40:53.399Z,97889.41
2022-12-04T09:43:36.178Z,97888.44
2022-12-04T09:46:16.219Z,97884.91
2022-12-04T09:48:49.750Z,97891.69
2022-12-04T09:51:26.205Z,97891.53
2022-12-04T09:54:01.399Z,97901.19
2022-12-04T09:56:32.443Z,97898.75
2022-12-04T09:59:11.775Z,97891.00
2022-12-04T10:01:48.521Z,97886.00
2022-12-04T10:04:20.176Z,97883.25
2022-12-04T10:07:00.240Z,97884.38
2022-12-04T10:09:44.320Z,97882.19
2022-12-04T10:12:28.895Z,97880.16
2022-12-04T10:15:19.187Z,97877.41
2022-12-04T10:18:20.603Z,97880.81
2022-12-04T10:21:17.324Z,97885.16
2022-12-04T10:24:02.994Z,97894.38
2022-12-04T10:26:40.496Z,97895.47
2022-12-04T10:29:18.905Z,97888.69
2022-12-04T10:31:50.423Z,97892.53
2022-12-04T10:34:24.795Z,97888.97
2022-12-04T10:37:00.293Z,97881.63
2022-12-04T10:39:39.035Z,97884.03
2022-12-04T10:42:17.397Z,97888.41
2022-12-04T10:44:46.889Z,97890.84
2022-12-04T10:47:15.909Z,97897.34
2022-12-04T10:49:44.638Z,97899.81
2022-12-04T10:52:15.161Z,97894.50
2022-12-04T10:54:52.543Z,97894.38
2022-12-04T10:57:21.629Z,97891.78
2022-12-04T10:59:55.161Z,97881.47
2022-12-04T11:02:28.157Z,97875.75
2022-12-04T11:05:00.969Z,97874.94
2022-12-04T11:07:37.707Z,97878.34
2022-12-04T11:10:22.973Z,97870.97
2022-12-04T11:12:56.588Z,97863.38
2022-12-04T11:15:27.047Z,97848.84
2022-12-04T11:17:55.922Z,97843.69
2022-12-04T11:20:28.770Z,97850.59
2022-12-04T11:23:00.623Z,97854.00
2022-12-04T11:25:35.990Z,97853.06
2022-12-04T11:28:06.881Z,97851.66
2022-12-04T11:30:39.990Z,97848.28
2022-12-04T11:33:20.998Z,97837.53
2022-12-04T11:35:57.758Z,97836.19
2022-12-04T11:38:31.123Z,97833.31
2022-12-04T11:41:03.304Z,97834.66
2022-12-04T11:43:34.536Z,97830.97
2022-12-04T11:46:06.667Z,97831.78
2022-12-04T11:48:46.461Z,97834.34
2022-12-04T11:51:27.042Z,97831.78
2022-12-04T11:54:08.337Z,97830.13
2022-12-04T11:56:43.882Z,97824.19
2022-12-04T11:59:39.024Z,97831.78
2022-12-04T12:02:35.046Z,97833.25
2022-12-04T12:05:53.767Z,97833.13
2022-12-04T12:08:40.178Z,97833.13
2022-12-04T12:11:24.518Z,97829.59
2022-12-04T12:14:08.690Z,97821.97
2022-12-04T12:17:00.145Z,97830.41
2022-12-04T12:20:06.706Z,97831.19
2022-12-04T12:23:08.056Z,97832.69
2022-12-04T12:25:52.412Z,97822.19
2022-12-04T12:29:15.442Z,97830.94
2022-12-04T12:32:14.244Z,97820.31
2022-12-04T12:34:47.941Z,97817.72
2022-12-04T12:37:28.066Z,97827.38
2022-12-04T12:40:04.705Z,97824.66
2022-12-04T12:42:40.215Z,97812.41
2022-12-04T12:45:28.285Z,97813.09
2022-12-04T12:48:10.821Z,97815.78
2022-12-04T12:50:54.729Z,97809.69
2022-12-04T12:53:41.117Z,97807.09
2022-12-04T12:56:13.498Z,97803.53
2022-12-04T12:58:47.396Z,97809.69
2022-12-04T13:01:25.843Z,97807.22
2022-12-04T13:04:04.770Z,97808.69
2022-12-04T13:06:39.242Z,97810.03
2022-12-04T13:09:19.415Z,97809.91
2022-12-04T13:11:53.572Z,97808.81
2022-12-04T13:14:23.136Z,97810.72
2022-12-04T13:17:00.181Z,97804.44
2022-12-04T13:19:35.376Z,97804.31
2022-12-04T13:22:19.248Z,97797.34
2022-12-04T13:25:28.952Z,97806.72
2022-12-04T13:28:24.032Z,97806.91
2022-12-04T13:31:08.213Z,97803.63
2022-12-04T13:34:32.455Z,97807.97
2022-12-04T13:37:34.727Z,97799.56
2022-12-04T13:40:37.619Z,97808.97
2022-12-04T13:43:31.646Z,97808.16
2022-12-04T13:46:04.213Z,97796.03
2022-12-04T13:48:41.060Z,97791.84
2022-12-04T13:51:43.876Z,97792.47
2022-12-04T13:54:30.768Z,97792.66
2022-12-04T13:57:19.859Z,97790.06
2022-12-04T13:59:51.138Z,97779.56
2022-12-04T14:02:38.438Z,97777.81
2022-12-04T14:05:12.307Z,97777.00
2022-12-04T14:07:59.222Z,97781.06
2022-12-04T14:10:35.708Z,97768.94
2022-12-04T14:13:19.517Z,97768.00
2022-12-04T14:15:49.105Z,97763.63
2022-12-04T14:18:30.220Z,97767.03
2022-12-04T14:21:04.302Z,97776.44
2022-12-04T14:23:41.200Z,97766.59
2022-12-04T14:26:37.435Z,97763.50
2022-12-04T14:29:40.007Z,97764.28
2022-12-04T14:32:16.836Z,97766.22
2022-12-04T14:34:48.442Z,97770.16
2022-12-04T14:37:28.583Z,97770.97
2022-12-04T14:40:02.418Z,97771.78
2022-12-04T14:42:40.124Z,97775.97
2022-12-04T14:45:28.685Z,97782.63
2022-12-04T14:48:47.125Z,97792.13
2022-12-04T14:51:26.222Z,97790.22
2022-12-04T14:54:11.009Z,97797.97
2022-12-04T14:57:00.166Z,97798.66
2022-12-04T14:59:44.937Z,97789.91
2022-12-04T15:02:18.517Z,97790.06
2022-12-04T15:04:50.100Z,97789.09
2022-12-04T15:07:22.719Z,97779.56
2022-12-04T15:10:14.984Z,97772.50
2022-12-04T15:12:51.274Z,97768.13
2022-12-04T15:15:25.263Z,97769.25
2022-12-04T15:18:05.439Z,97780.41
2022-12-04T15:20:42.959Z,97781.22
2022-12-04T15:23:17.742Z,97782.84
2022-12-04T15:25:50.798Z,97793.97
2022-12-04T15:28:28.297Z,97811.91
2022-12-04T15:31:02.048Z,97805.41
2022-12-04T15:33:37.312Z,97806.66
2022-12-04T15:36:16.270Z,97807.47
2022-12-04T15:38:46.840Z,97813.47
2022-12-04T15:41:35.077Z,97817.69
2022-12-04T15:44:26.124Z,97824.47
2022-12-04T15:46:58.554Z,97819.56
2022-12-04T15:49:30.272Z,97817.16
2022-12-04T15:52:09.411Z,97821.50
2022-12-04T15:54:44.101Z,97809.53
2022-12-04T15:57:23.806Z,97811.19
2022-12-04T15:59:56.447Z,97814.56
2022-12-04T16:02:31.288Z,97816.03
2022-12-04T16:05:00.353Z,97808.16
2022-12-04T16:07:31.024Z,97814.94
2022-12-04T16:10:04.255Z,97805.41
2022-12-04T16:12:35.231Z,97797.81
2022-12-04T16:15:07.521Z,97797.16
2022-12-04T16:17:36.853Z,97788.56
2022-12-04T16:20:09.529Z,97786.69
2022-12-04T16:22:42.637Z,97784.75
2022-12-04T16:25:14.645Z,97787.53
2022-12-04T16:27:43.631Z,97788.66
2022-12-04T16:30:16.318Z,97775.59
2022-12-04T16:32:45.327Z,97787.53
2022-12-04T16:35:18.698Z,97790.94
2022-12-04T16:37:47.865Z,97788.88
2022-12-04T16:40:18.136Z,97792.44
2022-12-04T16:42:47.983Z,97791.63
2022-12-04T16:45:29.220Z,97796.63
2022-12-04T16:47:58.672Z,97801.66
2022-12-04T16:50:29.716Z,97804.06
2022-12-04T16:53:01.566Z,97808.28
2022-12-04T16:55:35.831Z,97807.47
2022-12-04T16:58:05.909Z,97807.13
2022-12-04T17:00:37.568Z,97809.03
2022-12-04T17:03:08.240Z,97806.59
2022-12-04T17:05:37.920Z,97816.13
2022-12-04T17:08:08.085Z,97815.16
2022-12-04T17:10:38.090Z,97813.38
2022-12-04T17:13:08.151Z,97819.22
2022-12-04T17:15:38.647Z,97818.53
2022-12-04T17:18:12.971Z,97805.63
2022-12-04T17:20:45.133Z,97813.38
2022-12-04T17:23:14.500Z,97807.56
2022-12-04T17:25:43.344Z,97806.59
2022-12-04T17:28:15.394Z,97807.69
2022-12-04T17:30:49.731Z,97798.16
2022-12-04T17:33:19.736Z,97798.47
2022-12-04T17:35:51.116Z,97805.56
2022-12-04T17:38:21.369Z,97809.09
2022-12-04T17:41:01.114Z,97812.34
2022-12-04T17:43:31.432Z,97804.59
2022-12-04T17:46:02.726Z,97808.16
2022-12-04T17:48:32.486Z,97799.28
2022-12-04T17:51:11.559Z,97810.44
2022-12-04T17:53:41.018Z,97804.31
2022-12-04T17:56:13.149Z,97804.97
2022-12-04T17:58:42.947Z,97803.03
2022-12-04T18:01:18.114Z,97807.13
2022-12-04T18:03:51.765Z,97807.94
2022-12-04T18:06:24.243Z,97800.31
2022-12-04T18:08:54.208Z,97801.97
2022-12-04T18:11:26.602Z,97802.78
2022-12-04T18:14:00.076Z,97799.66
2022-12-04T18:16:33.826Z,97797.34
2022-12-04T18:19:04.648Z,97800.75
2022-12-04T18:21:35.679Z,97803.63
2022-12-04T18:24:06.325Z,97804.16
2022-12-04T18:26:39.493Z,97799.41
2022-12-04T18:29:10.788Z,97796.84
2022-12-04T18:31:41.541Z,97793.59
2022-12-04T18:34:11.909Z,97800.91
2022-12-04T18:36:42.370Z,97797.34
2022-12-04T18:39:16.667Z,97797.22
2022-12-04T18:41:46.652Z,97803.34
2022-12-04T18:44:15.983Z,97799.28
2022-12-04T18:46:46.705Z,97799.81
2022-12-04T18:49:15.629Z,97800.09
2022-12-04T18:51:50.029Z,97806.09
2022-12-04T18:54:23.175Z,97804.31
2022-12-04T18:56:53.161Z,97804.59
2022-12-04T18:59:25.802Z,97797.34
2022-12-04T19:01:56.517Z,97793.00
2022-12-04T19:04:26.483Z,97807.03
2022-12-04T19:06:57.412Z,97797.81
2022-12-04T19:10:02.587Z,97795.22
2022-12-04T19:12:18.721Z,97807.16
2022-12-04T19:14:48.553Z,97814.25
2022-12-04T19:17:20.232Z,97813.97
2022-12-04T19:19:50.942Z,97825.94
2022-12-04T19:22:19.637Z,97828.34
2022-12-04T19:24:49.768Z,97839.50
2022-12-04T19:27:19.204Z,97840.19
2022-12-04T19:29:49.689Z,97848.88
2022-12-04T19:32:21.431Z,97854.03
2022-12-04T19:34:50.313Z,97851.97
2022-12-04T19:37:19.550Z,97856.34
2022-12-04T19:39:48.881Z,97863.13
2022-12-04T19:42:17.900Z,97863.94
2022-12-04T19:44:48.805Z,97865.44
2022-12-04T19:47:20.066Z,97867.19
2022-12-04T19:49:49.915Z,97869.13
2022-12-04T19:52:20.271Z,97865.72
2022-12-04T19:54:49.321Z,97863.94
2022-12-04T19:57:18.886Z,97868.44
2022-12-04T19:59:47.419Z,97871.19
2022-12-04T20:02:16.820Z,97866.00
2022-12-04T20:04:48.079Z,97867.78
2022-12-04T20:07:16.944Z,97866.44
2022-12-04T20:09:51.938Z,97870.13
2022-12-04T20:12:21.744Z,97872.25
2022-12-04T20:14:50.312Z,97871.72
2022-12-04T20:17:18.843Z,97868.38
2022-12-04T20:19:49.890Z,97873.78
2022-12-04T20:22:18.869Z,97873.94
2022-12-04T20:24:48.131Z,97875.59
2022-12-04T20:27:17.177Z,97874.91
2022-12-04T20:29:47.106Z,97875.84
2022-12-04T20:32:16.875Z,97880.06
2022-12-04T20:34:45.917Z,97884.94
2022-12-04T20:37:17.035Z,97885.75
2022-12-04T20:39:46.678Z,97883.34
2022-12-04T20:42:16.814Z,97884.94
2022-12-04T20:44:45.746Z,97892.56
2022-12-04T20:47:15.367Z,97890.09
2022-12-04T20:49:44.343Z,97889.59
2022-12-04T20:52:15.503Z,97889.28
2022-12-04T20:54:44.161Z,97891.75
2022-12-04T20:57:12.712Z,97898.84
2022-12-04T20:59:41.144Z,97900.44
2022-12-04T21:02:09.654Z,97900.16
2022-12-04T21:04:39.825Z,97901.78
2022-12-04T21:07:08.444Z,97898.25
2022-12-04T21:09:38.515Z,97904.22
2022-12-04T21:12:29.668Z,97908.41
2022-12-04T21:15:16.538Z,97910.47
2022-12-04T21:17:45.212Z,97906.94
2022-12-04T21:20:16.364Z,97896.78
2022-12-04T21:22:45.355Z,97898.25
2022-12-04T21:25:15.734Z,97912.13
2022-12-04T21:27:44.328Z,97909.41
2022-12-04T21:30:15.654Z,97904.06
2022-12-04T21:32:45.333Z,97909.53
2022-12-04T21:35:14.338Z,97909.00
2022-12-04T21:37:43.925Z,97908.06
2022-12-04T21:40:14.966Z,97906.28
2022-12-04T21:42:44.130Z,97907.88
2022-12-04T21:45:13.028Z,97903.41
2022-12-04T21:47:43.092Z,97901.78
2022-12-04T21:50:12.033Z,97906.66
2022-12-04T21:52:41.886Z,97899.72
2022-12-04T21:55:11.181Z,97898.25
2022-12-04T21:57:42.535Z,97902.31
2022-12-04T22:00:13.135Z,97902.06
2022-12-04T22:02:42.214Z,97906.28
2022-12-04T22:05:12.234Z,97907.25
2022-12-04T22:07:41.244Z,97913.22
2022-12-04T22:10:12.646Z,97904.78
2022-12-04T22:12:50.011Z,97901.25
2022-12-04T22:15:20.159Z,97899.78
2022-12-04T22:17:49.612Z,97901.84
2022-12-04T22:20:20.115Z,97896.50
2022-12-04T22:22:50.712Z,97897.50
2022-12-04T22:25:20.598Z,97899.09
2022-12-04T22:27:50.998Z,97890.41
2022-12-04T22:30:21.759Z,97894.91
2022-12-04T22:32:51.313Z,97892.91
2022-12-04T22:35:20.134Z,97891.09
2022-12-04T22:37:48.946Z,97893.03
2022-12-04T22:40:18.734Z,97896.44
2022-12-04T22:42:49.167Z,97894.78
2022-12-04T22:45:18.811Z,97906.75
2022-12-04T22:47:48.929Z,97905.13
2022-12-04T22:50:18.914Z,97907.88
2022-12-04T22:52:47.353Z,97908.94
2022-12-04T22:55:16.432Z,97907.34
2022-12-04T22:57:46.455Z,97909.91
2022-12-04T23:00:19.816Z,97920.66
2022-12-04T23:02:49.826Z,97924.34
2022-12-04T23:05:19.280Z,97925.94
2022-12-04T23:07:47.771Z,97922.56
2022-12-04T23:10:18.390Z,97935.63
2022-12-04T23:12:47.303Z,97937.81
2022-12-04T23:15:17.682Z,97938.09
2022-12-04T23:17:46.457Z,97940.00
2022-12-04T23:20:15.844Z,97935.13
2022-12-04T23:22:44.783Z,97939.59
2022-12-04T23:25:15.148Z,97943.00
2022-12-04T23:27:44.194Z,97940.28
2022-12-04T23:30:14.953Z,97938.00
2022-12-04T23:32:45.793Z,97944.09
2022-12-04T23:35:15.890Z,97951.16
2022-12-04T23:37:45.866Z,97951.03
2022-12-04T23:40:16.056Z,97950.91
2022-12-04T23:42:45.021Z,97946.41
2022-12-04T23:45:14.995Z,97947.22
2022-12-04T23:47:47.480Z,97950.63
2022-12-04T23:50:16.420Z,97941.91
2022-12-04T23:52:45.916Z,97939.19
2022-12-04T23:55:15.430Z,97945.16
2022-12-04T23:57:45.033Z,97945.81
